sensor_id;sensor_type;location;lat;lon;timestamp;P1;durP1;ratioP1;P2;durP2;ratioP2
12707;SDS011;6418;50.824;4.718;2023-11-19T00:00:12;20.57;;;11.70;;
12707;SDS011;6418;50.824;4.718;2023-11-19T00:02:40;22.73;;;11.87;;
12707;SDS011;6418;50.824;4.718;2023-11-19T00:05:07;19.93;;;11.37;;
12707;SDS011;6418;50.824;4.718;2023-11-19T00:07:36;21.47;;;12.87;;
12707;SDS011;6418;50.824;4.718;2023-11-19T00:10:08;21.40;;;12.37;;
12707;SDS011;6418;50.824;4.718;2023-11-19T00:12:36;22.00;;;11.97;;
12707;SDS011;6418;50.824;4.718;2023-11-19T00:15:04;23.03;;;12.60;;
12707;SDS011;6418;50.824;4.718;2023-11-19T00:17:34;19.80;;;11.23;;
12707;SDS011;6418;50.824;4.718;2023-11-19T00:20:00;21.27;;;11.43;;
12707;SDS011;6418;50.824;4.718;2023-11-19T00:22:30;22.90;;;11.23;;
12707;SDS011;6418;50.824;4.718;2023-11-19T00:24:57;22.83;;;11.87;;
12707;SDS011;6418;50.824;4.718;2023-11-19T00:27:26;27.40;;;11.67;;
12707;SDS011;6418;50.824;4.718;2023-11-19T00:29:53;25.60;;;11.40;;
12707;SDS011;6418;50.824;4.718;2023-11-19T00:32:20;24.33;;;11.63;;
12707;SDS011;6418;50.824;4.718;2023-11-19T00:34:47;27.17;;;10.97;;
12707;SDS011;6418;50.824;4.718;2023-11-19T00:37:14;24.07;;;10.50;;
12707;SDS011;6418;50.824;4.718;2023-11-19T00:39:41;22.23;;;9.60;;
12707;SDS011;6418;50.824;4.718;2023-11-19T00:42:08;28.97;;;10.00;;
12707;SDS011;6418;50.824;4.718;2023-11-19T00:44:37;27.97;;;10.07;;
12707;SDS011;6418;50.824;4.718;2023-11-19T00:47:04;22.87;;;10.20;;
12707;SDS011;6418;50.824;4.718;2023-11-19T00:49:31;24.77;;;10.53;;
12707;SDS011;6418;50.824;4.718;2023-11-19T00:51:58;26.43;;;10.77;;
12707;SDS011;6418;50.824;4.718;2023-11-19T00:54:25;26.77;;;10.57;;
12707;SDS011;6418;50.824;4.718;2023-11-19T00:56:52;26.73;;;10.20;;
12707;SDS011;6418;50.824;4.718;2023-11-19T00:59:19;25.80;;;9.33;;
12707;SDS011;6418;50.824;4.718;2023-11-19T01:01:47;28.67;;;9.87;;
12707;SDS011;6418;50.824;4.718;2023-11-19T01:04:14;20.87;;;8.90;;
12707;SDS011;6418;50.824;4.718;2023-11-19T01:06:41;28.43;;;9.37;;
12707;SDS011;6418;50.824;4.718;2023-11-19T01:09:08;32.53;;;9.07;;
12707;SDS011;6418;50.824;4.718;2023-11-19T01:11:35;28.63;;;9.07;;
12707;SDS011;6418;50.824;4.718;2023-11-19T01:14:01;28.53;;;9.23;;
12707;SDS011;6418;50.824;4.718;2023-11-19T01:16:28;34.97;;;9.00;;
12707;SDS011;6418;50.824;4.718;2023-11-19T01:18:57;30.53;;;8.60;;
12707;SDS011;6418;50.824;4.718;2023-11-19T01:21:25;25.97;;;8.73;;
12707;SDS011;6418;50.824;4.718;2023-11-19T01:23:53;25.63;;;7.63;;
12707;SDS011;6418;50.824;4.718;2023-11-19T01:26:20;25.63;;;8.20;;
12707;SDS011;6418;50.824;4.718;2023-11-19T01:28:46;24.70;;;7.87;;
12707;SDS011;6418;50.824;4.718;2023-11-19T01:31:14;26.97;;;8.30;;
12707;SDS011;6418;50.824;4.718;2023-11-19T01:33:41;27.00;;;7.67;;
12707;SDS011;6418;50.824;4.718;2023-11-19T01:36:12;29.90;;;8.43;;
12707;SDS011;6418;50.824;4.718;2023-11-19T01:38:39;28.17;;;7.67;;
12707;SDS011;6418;50.824;4.718;2023-11-19T01:41:06;30.53;;;7.73;;
12707;SDS011;6418;50.824;4.718;2023-11-19T01:43:34;28.80;;;7.40;;
12707;SDS011;6418;50.824;4.718;2023-11-19T01:46:01;27.47;;;7.97;;
12707;SDS011;6418;50.824;4.718;2023-11-19T01:48:29;30.10;;;7.73;;
12707;SDS011;6418;50.824;4.718;2023-11-19T01:50:57;32.27;;;7.87;;
12707;SDS011;6418;50.824;4.718;2023-11-19T01:53:27;23.43;;;7.20;;
12707;SDS011;6418;50.824;4.718;2023-11-19T01:55:55;27.67;;;7.20;;
12707;SDS011;6418;50.824;4.718;2023-11-19T01:58:23;29.17;;;7.67;;
12707;SDS011;6418;50.824;4.718;2023-11-19T02:00:50;21.57;;;6.83;;
12707;SDS011;6418;50.824;4.718;2023-11-19T02:03:17;24.43;;;7.10;;
12707;SDS011;6418;50.824;4.718;2023-11-19T02:05:45;27.70;;;6.67;;
12707;SDS011;6418;50.824;4.718;2023-11-19T02:08:16;32.53;;;7.40;;
12707;SDS011;6418;50.824;4.718;2023-11-19T02:10:44;28.93;;;7.60;;
12707;SDS011;6418;50.824;4.718;2023-11-19T02:13:11;27.00;;;7.00;;
12707;SDS011;6418;50.824;4.718;2023-11-19T02:15:39;27.70;;;6.93;;
12707;SDS011;6418;50.824;4.718;2023-11-19T02:18:19;24.17;;;6.97;;
12707;SDS011;6418;50.824;4.718;2023-11-19T02:20:47;26.47;;;7.07;;
12707;SDS011;6418;50.824;4.718;2023-11-19T02:23:14;24.90;;;7.47;;
12707;SDS011;6418;50.824;4.718;2023-11-19T02:25:41;30.90;;;7.50;;
12707;SDS011;6418;50.824;4.718;2023-11-19T02:28:16;34.80;;;7.63;;
12707;SDS011;6418;50.824;4.718;2023-11-19T02:30:43;29.50;;;7.63;;
12707;SDS011;6418;50.824;4.718;2023-11-19T02:33:10;31.90;;;7.53;;
12707;SDS011;6418;50.824;4.718;2023-11-19T02:35:37;27.77;;;7.17;;
12707;SDS011;6418;50.824;4.718;2023-11-19T02:38:05;27.50;;;7.20;;
12707;SDS011;6418;50.824;4.718;2023-11-19T02:40:33;34.97;;;7.37;;
12707;SDS011;6418;50.824;4.718;2023-11-19T02:43:00;28.77;;;6.97;;
12707;SDS011;6418;50.824;4.718;2023-11-19T02:45:30;29.47;;;6.83;;
12707;SDS011;6418;50.824;4.718;2023-11-19T02:47:57;34.73;;;7.43;;
12707;SDS011;6418;50.824;4.718;2023-11-19T02:50:26;25.67;;;6.70;;
12707;SDS011;6418;50.824;4.718;2023-11-19T02:52:53;31.03;;;6.90;;
12707;SDS011;6418;50.824;4.718;2023-11-19T02:55:22;29.40;;;6.90;;
12707;SDS011;6418;50.824;4.718;2023-11-19T02:57:50;26.10;;;6.57;;
12707;SDS011;6418;50.824;4.718;2023-11-19T03:00:19;31.73;;;7.30;;
12707;SDS011;6418;50.824;4.718;2023-11-19T03:02:50;27.87;;;7.00;;
12707;SDS011;6418;50.824;4.718;2023-11-19T03:05:24;26.70;;;6.27;;
12707;SDS011;6418;50.824;4.718;2023-11-19T03:07:55;33.50;;;7.33;;
12707;SDS011;6418;50.824;4.718;2023-11-19T03:10:23;28.83;;;6.90;;
12707;SDS011;6418;50.824;4.718;2023-11-19T03:12:50;25.90;;;6.70;;
12707;SDS011;6418;50.824;4.718;2023-11-19T03:15:17;25.27;;;6.63;;
12707;SDS011;6418;50.824;4.718;2023-11-19T03:17:46;27.60;;;7.13;;
12707;SDS011;6418;50.824;4.718;2023-11-19T03:20:14;31.30;;;6.40;;
12707;SDS011;6418;50.824;4.718;2023-11-19T03:22:42;27.10;;;7.03;;
12707;SDS011;6418;50.824;4.718;2023-11-19T03:25:09;32.20;;;7.50;;
12707;SDS011;6418;50.824;4.718;2023-11-19T03:27:36;25.13;;;7.33;;
12707;SDS011;6418;50.824;4.718;2023-11-19T03:30:04;30.37;;;7.00;;
12707;SDS011;6418;50.824;4.718;2023-11-19T03:32:31;31.40;;;7.23;;
12707;SDS011;6418;50.824;4.718;2023-11-19T03:35:00;29.50;;;7.30;;
12707;SDS011;6418;50.824;4.718;2023-11-19T03:37:30;28.60;;;6.70;;
12707;SDS011;6418;50.824;4.718;2023-11-19T03:39:58;33.30;;;7.10;;
12707;SDS011;6418;50.824;4.718;2023-11-19T03:42:25;24.63;;;6.70;;
12707;SDS011;6418;50.824;4.718;2023-11-19T03:44:52;30.07;;;7.30;;
12707;SDS011;6418;50.824;4.718;2023-11-19T03:47:19;33.33;;;6.67;;
12707;SDS011;6418;50.824;4.718;2023-11-19T03:49:47;30.13;;;6.73;;
12707;SDS011;6418;50.824;4.718;2023-11-19T03:52:14;31.43;;;7.10;;
12707;SDS011;6418;50.824;4.718;2023-11-19T03:54:43;26.30;;;6.27;;
12707;SDS011;6418;50.824;4.718;2023-11-19T03:57:10;23.80;;;6.13;;
12707;SDS011;6418;50.824;4.718;2023-11-19T03:59:37;28.53;;;6.57;;
12707;SDS011;6418;50.824;4.718;2023-11-19T04:02:04;31.83;;;6.67;;
12707;SDS011;6418;50.824;4.718;2023-11-19T04:04:31;31.63;;;6.70;;
12707;SDS011;6418;50.824;4.718;2023-11-19T04:06:58;25.83;;;6.70;;
12707;SDS011;6418;50.824;4.718;2023-11-19T04:09:27;28.87;;;6.73;;
12707;SDS011;6418;50.824;4.718;2023-11-19T04:11:56;33.43;;;7.80;;
12707;SDS011;6418;50.824;4.718;2023-11-19T04:14:23;32.67;;;6.90;;
12707;SDS011;6418;50.824;4.718;2023-11-19T04:16:50;31.17;;;7.03;;
12707;SDS011;6418;50.824;4.718;2023-11-19T04:19:17;32.03;;;6.97;;
12707;SDS011;6418;50.824;4.718;2023-11-19T04:21:44;32.33;;;7.07;;
12707;SDS011;6418;50.824;4.718;2023-11-19T04:24:11;27.00;;;6.63;;
12707;SDS011;6418;50.824;4.718;2023-11-19T04:26:40;32.77;;;6.97;;
12707;SDS011;6418;50.824;4.718;2023-11-19T04:29:11;27.50;;;6.60;;
12707;SDS011;6418;50.824;4.718;2023-11-19T04:31:38;28.33;;;7.23;;
12707;SDS011;6418;50.824;4.718;2023-11-19T04:34:05;31.37;;;6.90;;
12707;SDS011;6418;50.824;4.718;2023-11-19T04:36:32;30.83;;;6.37;;
12707;SDS011;6418;50.824;4.718;2023-11-19T04:38:59;26.63;;;6.83;;
12707;SDS011;6418;50.824;4.718;2023-11-19T04:41:26;32.23;;;7.33;;
12707;SDS011;6418;50.824;4.718;2023-11-19T04:43:53;40.37;;;7.53;;
12707;SDS011;6418;50.824;4.718;2023-11-19T04:46:22;41.70;;;8.60;;
12707;SDS011;6418;50.824;4.718;2023-11-19T04:48:49;41.27;;;7.90;;
12707;SDS011;6418;50.824;4.718;2023-11-19T04:51:16;32.90;;;8.07;;
12707;SDS011;6418;50.824;4.718;2023-11-19T04:53:43;35.70;;;7.70;;
12707;SDS011;6418;50.824;4.718;2023-11-19T04:56:10;33.77;;;7.90;;
12707;SDS011;6418;50.824;4.718;2023-11-19T04:58:38;33.87;;;7.63;;
12707;SDS011;6418;50.824;4.718;2023-11-19T05:01:05;36.30;;;7.30;;
12707;SDS011;6418;50.824;4.718;2023-11-19T05:03:33;37.30;;;7.60;;
12707;SDS011;6418;50.824;4.718;2023-11-19T05:06:01;30.63;;;6.40;;
12707;SDS011;6418;50.824;4.718;2023-11-19T05:08:28;39.00;;;7.43;;
12707;SDS011;6418;50.824;4.718;2023-11-19T05:10:55;38.13;;;7.20;;
12707;SDS011;6418;50.824;4.718;2023-11-19T05:13:22;36.70;;;7.60;;
12707;SDS011;6418;50.824;4.718;2023-11-19T05:15:51;34.33;;;7.20;;
12707;SDS011;6418;50.824;4.718;2023-11-19T05:18:18;35.73;;;7.20;;
12707;SDS011;6418;50.824;4.718;2023-11-19T05:20:46;32.23;;;7.07;;
12707;SDS011;6418;50.824;4.718;2023-11-19T05:23:13;38.13;;;7.43;;
12707;SDS011;6418;50.824;4.718;2023-11-19T05:25:40;35.40;;;7.20;;
12707;SDS011;6418;50.824;4.718;2023-11-19T05:28:07;32.50;;;7.47;;
12707;SDS011;6418;50.824;4.718;2023-11-19T05:30:33;33.03;;;6.93;;
12707;SDS011;6418;50.824;4.718;2023-11-19T05:33:00;37.17;;;7.20;;
12707;SDS011;6418;50.824;4.718;2023-11-19T05:35:27;40.13;;;7.20;;
12707;SDS011;6418;50.824;4.718;2023-11-19T05:37:55;34.43;;;7.20;;
12707;SDS011;6418;50.824;4.718;2023-11-19T05:40:23;26.30;;;6.53;;
12707;SDS011;6418;50.824;4.718;2023-11-19T05:42:50;33.73;;;6.67;;
12707;SDS011;6418;50.824;4.718;2023-11-19T05:45:17;37.97;;;7.67;;
12707;SDS011;6418;50.824;4.718;2023-11-19T05:47:43;38.07;;;7.40;;
12707;SDS011;6418;50.824;4.718;2023-11-19T05:50:10;31.30;;;7.37;;
12707;SDS011;6418;50.824;4.718;2023-11-19T05:52:37;36.13;;;8.10;;
12707;SDS011;6418;50.824;4.718;2023-11-19T05:55:06;35.73;;;6.83;;
12707;SDS011;6418;50.824;4.718;2023-11-19T05:57:35;38.13;;;7.30;;
12707;SDS011;6418;50.824;4.718;2023-11-19T06:00:02;39.50;;;7.30;;
12707;SDS011;6418;50.824;4.718;2023-11-19T06:02:32;36.03;;;7.30;;
12707;SDS011;6418;50.824;4.718;2023-11-19T06:04:59;34.60;;;6.93;;
12707;SDS011;6418;50.824;4.718;2023-11-19T06:07:26;37.77;;;7.70;;
12707;SDS011;6418;50.824;4.718;2023-11-19T06:09:53;32.97;;;7.53;;
12707;SDS011;6418;50.824;4.718;2023-11-19T06:12:21;39.77;;;7.40;;
12707;SDS011;6418;50.824;4.718;2023-11-19T06:14:48;31.37;;;7.20;;
12707;SDS011;6418;50.824;4.718;2023-11-19T06:17:15;35.40;;;7.43;;
12707;SDS011;6418;50.824;4.718;2023-11-19T06:19:42;36.07;;;6.83;;
12707;SDS011;6418;50.824;4.718;2023-11-19T06:22:10;32.97;;;7.00;;
12707;SDS011;6418;50.824;4.718;2023-11-19T06:24:37;37.30;;;7.60;;
12707;SDS011;6418;50.824;4.718;2023-11-19T06:27:04;38.53;;;7.73;;
12707;SDS011;6418;50.824;4.718;2023-11-19T06:29:32;34.90;;;7.47;;
12707;SDS011;6418;50.824;4.718;2023-11-19T06:31:59;39.67;;;7.40;;
12707;SDS011;6418;50.824;4.718;2023-11-19T06:34:25;36.60;;;8.00;;
12707;SDS011;6418;50.824;4.718;2023-11-19T06:36:53;33.70;;;7.60;;
12707;SDS011;6418;50.824;4.718;2023-11-19T06:39:20;37.47;;;7.07;;
12707;SDS011;6418;50.824;4.718;2023-11-19T06:41:47;31.20;;;6.70;;
12707;SDS011;6418;50.824;4.718;2023-11-19T06:44:14;32.03;;;6.70;;
12707;SDS011;6418;50.824;4.718;2023-11-19T06:46:42;32.20;;;7.03;;
12707;SDS011;6418;50.824;4.718;2023-11-19T06:49:09;35.27;;;7.20;;
12707;SDS011;6418;50.824;4.718;2023-11-19T06:51:40;36.73;;;7.10;;
12707;SDS011;6418;50.824;4.718;2023-11-19T06:54:07;39.93;;;8.13;;
12707;SDS011;6418;50.824;4.718;2023-11-19T06:56:34;32.97;;;7.40;;
12707;SDS011;6418;50.824;4.718;2023-11-19T06:59:02;37.17;;;7.80;;
12707;SDS011;6418;50.824;4.718;2023-11-19T07:01:30;36.93;;;7.40;;
12707;SDS011;6418;50.824;4.718;2023-11-19T07:04:02;32.87;;;7.50;;
12707;SDS011;6418;50.824;4.718;2023-11-19T07:06:34;36.73;;;7.83;;
12707;SDS011;6418;50.824;4.718;2023-11-19T07:09:01;33.87;;;7.93;;
12707;SDS011;6418;50.824;4.718;2023-11-19T07:11:34;37.23;;;7.40;;
12707;SDS011;6418;50.824;4.718;2023-11-19T07:14:01;37.83;;;7.07;;
12707;SDS011;6418;50.824;4.718;2023-11-19T07:16:29;29.80;;;7.20;;
12707;SDS011;6418;50.824;4.718;2023-11-19T07:18:56;36.00;;;7.77;;
12707;SDS011;6418;50.824;4.718;2023-11-19T07:21:25;35.83;;;7.53;;
12707;SDS011;6418;50.824;4.718;2023-11-19T07:23:53;36.23;;;7.20;;
12707;SDS011;6418;50.824;4.718;2023-11-19T07:26:20;37.90;;;8.40;;
12707;SDS011;6418;50.824;4.718;2023-11-19T07:28:50;37.27;;;7.57;;
12707;SDS011;6418;50.824;4.718;2023-11-19T07:31:17;35.20;;;7.47;;
12707;SDS011;6418;50.824;4.718;2023-11-19T07:33:44;35.40;;;7.30;;
12707;SDS011;6418;50.824;4.718;2023-11-19T07:36:12;39.13;;;7.73;;
12707;SDS011;6418;50.824;4.718;2023-11-19T07:38:41;41.53;;;7.77;;
12707;SDS011;6418;50.824;4.718;2023-11-19T07:41:08;40.40;;;7.50;;
12707;SDS011;6418;50.824;4.718;2023-11-19T07:43:38;37.47;;;7.70;;
12707;SDS011;6418;50.824;4.718;2023-11-19T07:46:10;41.43;;;8.17;;
12707;SDS011;6418;50.824;4.718;2023-11-19T07:48:38;42.47;;;8.30;;
12707;SDS011;6418;50.824;4.718;2023-11-19T07:51:05;35.97;;;8.60;;
12707;SDS011;6418;50.824;4.718;2023-11-19T07:53:31;40.03;;;7.50;;
12707;SDS011;6418;50.824;4.718;2023-11-19T07:56:00;40.87;;;7.90;;
12707;SDS011;6418;50.824;4.718;2023-11-19T07:58:27;44.67;;;8.00;;
12707;SDS011;6418;50.824;4.718;2023-11-19T08:00:54;35.93;;;7.70;;
12707;SDS011;6418;50.824;4.718;2023-11-19T08:03:21;45.37;;;7.27;;
12707;SDS011;6418;50.824;4.718;2023-11-19T08:05:48;39.03;;;7.87;;
12707;SDS011;6418;50.824;4.718;2023-11-19T08:08:15;38.57;;;8.10;;
12707;SDS011;6418;50.824;4.718;2023-11-19T08:10:42;38.63;;;8.40;;
12707;SDS011;6418;50.824;4.718;2023-11-19T08:13:11;42.47;;;8.13;;
12707;SDS011;6418;50.824;4.718;2023-11-19T08:15:38;43.60;;;8.03;;
12707;SDS011;6418;50.824;4.718;2023-11-19T08:18:06;41.77;;;8.83;;
12707;SDS011;6418;50.824;4.718;2023-11-19T08:20:34;40.73;;;8.60;;
12707;SDS011;6418;50.824;4.718;2023-11-19T08:23:02;40.73;;;9.33;;
12707;SDS011;6418;50.824;4.718;2023-11-19T08:25:30;42.60;;;8.53;;
12707;SDS011;6418;50.824;4.718;2023-11-19T08:27:58;42.23;;;8.77;;
12707;SDS011;6418;50.824;4.718;2023-11-19T08:30:26;35.87;;;8.97;;
12707;SDS011;6418;50.824;4.718;2023-11-19T08:32:53;37.00;;;8.83;;
12707;SDS011;6418;50.824;4.718;2023-11-19T08:35:20;36.57;;;8.27;;
12707;SDS011;6418;50.824;4.718;2023-11-19T08:37:48;34.40;;;7.80;;
12707;SDS011;6418;50.824;4.718;2023-11-19T08:40:16;33.40;;;8.63;;
12707;SDS011;6418;50.824;4.718;2023-11-19T08:42:43;34.23;;;7.87;;
12707;SDS011;6418;50.824;4.718;2023-11-19T08:45:10;31.37;;;7.37;;
12707;SDS011;6418;50.824;4.718;2023-11-19T08:47:38;34.80;;;8.13;;
12707;SDS011;6418;50.824;4.718;2023-11-19T08:50:06;37.10;;;8.10;;
12707;SDS011;6418;50.824;4.718;2023-11-19T08:52:33;32.03;;;7.40;;
12707;SDS011;6418;50.824;4.718;2023-11-19T08:55:00;34.93;;;6.87;;
12707;SDS011;6418;50.824;4.718;2023-11-19T08:57:27;35.97;;;7.60;;
12707;SDS011;6418;50.824;4.718;2023-11-19T08:59:54;32.40;;;7.27;;
12707;SDS011;6418;50.824;4.718;2023-11-19T09:02:21;29.23;;;6.90;;
12707;SDS011;6418;50.824;4.718;2023-11-19T09:04:49;34.50;;;7.53;;
12707;SDS011;6418;50.824;4.718;2023-11-19T09:07:17;31.80;;;7.57;;
12707;SDS011;6418;50.824;4.718;2023-11-19T09:09:43;29.13;;;7.10;;
12707;SDS011;6418;50.824;4.718;2023-11-19T09:12:10;32.50;;;7.57;;
12707;SDS011;6418;50.824;4.718;2023-11-19T09:14:38;34.80;;;7.03;;
12707;SDS011;6418;50.824;4.718;2023-11-19T09:17:07;31.73;;;7.47;;
12707;SDS011;6418;50.824;4.718;2023-11-19T09:19:34;33.67;;;6.97;;
12707;SDS011;6418;50.824;4.718;2023-11-19T09:22:03;34.77;;;7.63;;
12707;SDS011;6418;50.824;4.718;2023-11-19T09:24:30;27.97;;;7.70;;
12707;SDS011;6418;50.824;4.718;2023-11-19T09:26:57;32.10;;;7.53;;
12707;SDS011;6418;50.824;4.718;2023-11-19T09:29:25;32.30;;;7.20;;
12707;SDS011;6418;50.824;4.718;2023-11-19T09:31:52;30.27;;;7.00;;
12707;SDS011;6418;50.824;4.718;2023-11-19T09:34:19;29.00;;;6.90;;
12707;SDS011;6418;50.824;4.718;2023-11-19T09:36:46;28.57;;;7.23;;
12707;SDS011;6418;50.824;4.718;2023-11-19T09:39:14;29.73;;;7.17;;
12707;SDS011;6418;50.824;4.718;2023-11-19T09:41:42;25.00;;;6.63;;
12707;SDS011;6418;50.824;4.718;2023-11-19T09:44:10;27.73;;;6.73;;
12707;SDS011;6418;50.824;4.718;2023-11-19T09:46:37;20.07;;;6.03;;
12707;SDS011;6418;50.824;4.718;2023-11-19T09:49:07;25.37;;;6.10;;
12707;SDS011;6418;50.824;4.718;2023-11-19T09:51:36;23.90;;;6.63;;
12707;SDS011;6418;50.824;4.718;2023-11-19T09:54:03;25.57;;;6.47;;
12707;SDS011;6418;50.824;4.718;2023-11-19T09:56:33;27.33;;;6.43;;
12707;SDS011;6418;50.824;4.718;2023-11-19T09:59:04;27.97;;;8.23;;
12707;SDS011;6418;50.824;4.718;2023-11-19T10:01:31;26.40;;;7.63;;
12707;SDS011;6418;50.824;4.718;2023-11-19T10:03:59;26.03;;;6.90;;
12707;SDS011;6418;50.824;4.718;2023-11-19T10:06:27;30.17;;;7.37;;
12707;SDS011;6418;50.824;4.718;2023-11-19T10:08:54;26.73;;;6.03;;
12707;SDS011;6418;50.824;4.718;2023-11-19T10:11:21;24.43;;;6.37;;
12707;SDS011;6418;50.824;4.718;2023-11-19T10:13:50;24.67;;;6.60;;
12707;SDS011;6418;50.824;4.718;2023-11-19T10:16:19;26.43;;;6.03;;
12707;SDS011;6418;50.824;4.718;2023-11-19T10:18:47;21.70;;;5.93;;
12707;SDS011;6418;50.824;4.718;2023-11-19T10:21:16;27.07;;;6.70;;
12707;SDS011;6418;50.824;4.718;2023-11-19T10:23:47;27.50;;;6.33;;
12707;SDS011;6418;50.824;4.718;2023-11-19T10:26:17;24.70;;;6.80;;
12707;SDS011;6418;50.824;4.718;2023-11-19T10:28:45;25.80;;;6.03;;
12707;SDS011;6418;50.824;4.718;2023-11-19T10:31:14;26.30;;;6.37;;
12707;SDS011;6418;50.824;4.718;2023-11-19T10:33:41;31.00;;;8.10;;
12707;SDS011;6418;50.824;4.718;2023-11-19T10:36:10;30.70;;;8.00;;
12707;SDS011;6418;50.824;4.718;2023-11-19T10:38:38;32.93;;;7.43;;
12707;SDS011;6418;50.824;4.718;2023-11-19T10:41:05;27.23;;;7.80;;
12707;SDS011;6418;50.824;4.718;2023-11-19T10:43:42;27.07;;;6.80;;
12707;SDS011;6418;50.824;4.718;2023-11-19T10:46:11;28.47;;;7.20;;
12707;SDS011;6418;50.824;4.718;2023-11-19T10:48:40;25.77;;;7.00;;
12707;SDS011;6418;50.824;4.718;2023-11-19T10:51:07;27.00;;;7.30;;
12707;SDS011;6418;50.824;4.718;2023-11-19T10:53:35;27.73;;;6.87;;
12707;SDS011;6418;50.824;4.718;2023-11-19T10:56:06;30.80;;;6.50;;
12707;SDS011;6418;50.824;4.718;2023-11-19T10:58:38;26.67;;;6.03;;
12707;SDS011;6418;50.824;4.718;2023-11-19T11:01:11;22.60;;;6.50;;
12707;SDS011;6418;50.824;4.718;2023-11-19T11:03:43;23.17;;;6.20;;
12707;SDS011;6418;50.824;4.718;2023-11-19T11:06:12;24.77;;;6.47;;
12707;SDS011;6418;50.824;4.718;2023-11-19T11:08:39;23.50;;;6.10;;
12707;SDS011;6418;50.824;4.718;2023-11-19T11:11:07;24.20;;;6.30;;
12707;SDS011;6418;50.824;4.718;2023-11-19T11:13:37;23.20;;;6.43;;
12707;SDS011;6418;50.824;4.718;2023-11-19T11:16:08;21.33;;;7.10;;
12707;SDS011;6418;50.824;4.718;2023-11-19T11:18:36;22.20;;;6.33;;
12707;SDS011;6418;50.824;4.718;2023-11-19T11:21:06;28.63;;;6.23;;
12707;SDS011;6418;50.824;4.718;2023-11-19T11:29:24;24.83;;;6.20;;
12707;SDS011;6418;50.824;4.718;2023-11-19T11:31:54;24.97;;;6.37;;
12707;SDS011;6418;50.824;4.718;2023-11-19T11:37:21;25.43;;;6.43;;
12707;SDS011;6418;50.824;4.718;2023-11-19T11:39:53;24.03;;;5.90;;
12707;SDS011;6418;50.824;4.718;2023-11-19T11:42:33;23.13;;;5.73;;
12707;SDS011;6418;50.824;4.718;2023-11-19T11:45:01;25.37;;;6.10;;
12707;SDS011;6418;50.824;4.718;2023-11-19T11:50:35;31.50;;;6.43;;
12707;SDS011;6418;50.824;4.718;2023-11-19T11:53:19;27.27;;;6.23;;
12707;SDS011;6418;50.824;4.718;2023-11-19T11:55:53;28.77;;;6.40;;
12707;SDS011;6418;50.824;4.718;2023-11-19T11:58:26;29.70;;;6.13;;
12707;SDS011;6418;50.824;4.718;2023-11-19T12:00:56;25.23;;;6.53;;
12707;SDS011;6418;50.824;4.718;2023-11-19T12:03:26;23.80;;;6.60;;
12707;SDS011;6418;50.824;4.718;2023-11-19T12:05:54;27.63;;;6.53;;
12707;SDS011;6418;50.824;4.718;2023-11-19T12:08:25;25.23;;;6.67;;
12707;SDS011;6418;50.824;4.718;2023-11-19T12:10:53;24.40;;;6.77;;
12707;SDS011;6418;50.824;4.718;2023-11-19T12:13:23;32.70;;;6.50;;
12707;SDS011;6418;50.824;4.718;2023-11-19T12:16:09;22.43;;;5.47;;
12707;SDS011;6418;50.824;4.718;2023-11-19T12:18:38;20.87;;;6.07;;
12707;SDS011;6418;50.824;4.718;2023-11-19T12:21:09;23.50;;;6.10;;
12707;SDS011;6418;50.824;4.718;2023-11-19T12:23:43;22.30;;;5.80;;
12707;SDS011;6418;50.824;4.718;2023-11-19T12:26:30;21.00;;;5.77;;
12707;SDS011;6418;50.824;4.718;2023-11-19T12:28:59;19.80;;;5.70;;
12707;SDS011;6418;50.824;4.718;2023-11-19T12:31:28;18.87;;;5.17;;
12707;SDS011;6418;50.824;4.718;2023-11-19T12:33:55;18.07;;;5.07;;
12707;SDS011;6418;50.824;4.718;2023-11-19T12:36:22;25.03;;;5.60;;
12707;SDS011;6418;50.824;4.718;2023-11-19T12:38:51;21.30;;;6.00;;
12707;SDS011;6418;50.824;4.718;2023-11-19T12:41:18;23.57;;;5.90;;
12707;SDS011;6418;50.824;4.718;2023-11-19T12:43:48;24.43;;;5.87;;
12707;SDS011;6418;50.824;4.718;2023-11-19T12:46:18;22.67;;;5.90;;
12707;SDS011;6418;50.824;4.718;2023-11-19T12:48:50;28.03;;;5.83;;
12707;SDS011;6418;50.824;4.718;2023-11-19T12:51:17;21.47;;;5.57;;
12707;SDS011;6418;50.824;4.718;2023-11-19T12:53:48;23.20;;;6.30;;
12707;SDS011;6418;50.824;4.718;2023-11-19T12:56:19;25.03;;;5.80;;
12707;SDS011;6418;50.824;4.718;2023-11-19T12:58:47;23.20;;;6.00;;
12707;SDS011;6418;50.824;4.718;2023-11-19T13:01:15;19.53;;;5.77;;
12707;SDS011;6418;50.824;4.718;2023-11-19T13:03:44;22.53;;;6.03;;
12707;SDS011;6418;50.824;4.718;2023-11-19T13:06:11;25.33;;;6.10;;
12707;SDS011;6418;50.824;4.718;2023-11-19T13:08:41;26.07;;;6.30;;
12707;SDS011;6418;50.824;4.718;2023-11-19T13:11:10;24.20;;;6.87;;
12707;SDS011;6418;50.824;4.718;2023-11-19T13:13:57;21.77;;;6.57;;
12707;SDS011;6418;50.824;4.718;2023-11-19T13:16:24;25.43;;;7.07;;
12707;SDS011;6418;50.824;4.718;2023-11-19T13:18:52;24.23;;;6.73;;
12707;SDS011;6418;50.824;4.718;2023-11-19T13:21:19;25.67;;;7.13;;
12707;SDS011;6418;50.824;4.718;2023-11-19T13:23:46;28.03;;;6.77;;
12707;SDS011;6418;50.824;4.718;2023-11-19T13:26:13;23.97;;;6.60;;
12707;SDS011;6418;50.824;4.718;2023-11-19T13:28:40;23.43;;;5.87;;
12707;SDS011;6418;50.824;4.718;2023-11-19T13:31:08;26.33;;;6.97;;
12707;SDS011;6418;50.824;4.718;2023-11-19T13:33:35;26.47;;;6.57;;
12707;SDS011;6418;50.824;4.718;2023-11-19T13:36:02;23.53;;;6.77;;
12707;SDS011;6418;50.824;4.718;2023-11-19T13:38:32;23.10;;;6.10;;
12707;SDS011;6418;50.824;4.718;2023-11-19T13:40:59;24.63;;;6.50;;
12707;SDS011;6418;50.824;4.718;2023-11-19T13:43:26;28.60;;;6.63;;
12707;SDS011;6418;50.824;4.718;2023-11-19T13:45:53;27.27;;;6.77;;
12707;SDS011;6418;50.824;4.718;2023-11-19T13:48:22;29.03;;;6.20;;
12707;SDS011;6418;50.824;4.718;2023-11-19T13:50:49;28.53;;;6.93;;
12707;SDS011;6418;50.824;4.718;2023-11-19T13:53:16;21.53;;;6.10;;
12707;SDS011;6418;50.824;4.718;2023-11-19T13:55:43;25.47;;;6.77;;
12707;SDS011;6418;50.824;4.718;2023-11-19T13:58:10;25.23;;;6.87;;
12707;SDS011;6418;50.824;4.718;2023-11-19T14:00:37;24.20;;;6.33;;
12707;SDS011;6418;50.824;4.718;2023-11-19T14:03:05;25.53;;;6.60;;
12707;SDS011;6418;50.824;4.718;2023-11-19T14:05:33;21.03;;;6.20;;
12707;SDS011;6418;50.824;4.718;2023-11-19T14:08:00;26.23;;;6.53;;
12707;SDS011;6418;50.824;4.718;2023-11-19T14:10:27;27.17;;;6.23;;
12707;SDS011;6418;50.824;4.718;2023-11-19T14:12:54;26.53;;;6.47;;
12707;SDS011;6418;50.824;4.718;2023-11-19T14:15:21;23.60;;;6.20;;
12707;SDS011;6418;50.824;4.718;2023-11-19T14:17:48;23.97;;;6.47;;
12707;SDS011;6418;50.824;4.718;2023-11-19T14:20:15;27.33;;;6.10;;
12707;SDS011;6418;50.824;4.718;2023-11-19T14:22:44;26.93;;;7.23;;
12707;SDS011;6418;50.824;4.718;2023-11-19T14:25:13;23.63;;;6.17;;
12707;SDS011;6418;50.824;4.718;2023-11-19T14:27:41;30.03;;;6.67;;
12707;SDS011;6418;50.824;4.718;2023-11-19T14:30:10;31.57;;;6.77;;
12707;SDS011;6418;50.824;4.718;2023-11-19T14:32:39;27.03;;;6.40;;
12707;SDS011;6418;50.824;4.718;2023-11-19T14:35:09;29.63;;;7.37;;
12707;SDS011;6418;50.824;4.718;2023-11-19T14:37:36;23.73;;;6.60;;
12707;SDS011;6418;50.824;4.718;2023-11-19T14:40:05;28.40;;;6.37;;
12707;SDS011;6418;50.824;4.718;2023-11-19T14:42:35;28.03;;;6.97;;
12707;SDS011;6418;50.824;4.718;2023-11-19T14:45:02;26.83;;;6.43;;
12707;SDS011;6418;50.824;4.718;2023-11-19T14:47:29;27.57;;;6.20;;
12707;SDS011;6418;50.824;4.718;2023-11-19T14:49:56;29.03;;;6.60;;
12707;SDS011;6418;50.824;4.718;2023-11-19T14:52:23;28.50;;;7.10;;
12707;SDS011;6418;50.824;4.718;2023-11-19T14:54:51;31.37;;;7.13;;
12707;SDS011;6418;50.824;4.718;2023-11-19T14:57:20;27.83;;;6.63;;
12707;SDS011;6418;50.824;4.718;2023-11-19T14:59:47;28.87;;;6.33;;
12707;SDS011;6418;50.824;4.718;2023-11-19T15:02:14;24.20;;;6.33;;
12707;SDS011;6418;50.824;4.718;2023-11-19T15:04:41;23.70;;;6.23;;